sensor_id;sensor_type;location;lat;lon;timestamp;P1;durP1;ratioP1;P2;durP2;ratioP2
17604;SDS011;8921;50.964;6.800;2023-07-30T00:00:34;7.67;;;3.60;;
17604;SDS011;8921;50.964;6.800;2023-07-30T00:03:02;6.27;;;4.07;;
17604;SDS011;8921;50.964;6.800;2023-07-30T00:05:30;6.97;;;3.57;;
17604;SDS011;8921;50.964;6.800;2023-07-30T00:07:59;9.93;;;4.00;;
17604;SDS011;8921;50.964;6.800;2023-07-30T00:10:27;6.70;;;4.23;;
17604;SDS011;8921;50.964;6.800;2023-07-30T00:12:55;9.00;;;4.77;;
17604;SDS011;8921;50.964;6.800;2023-07-30T00:15:23;8.17;;;4.00;;
17604;SDS011;8921;50.964;6.800;2023-07-30T00:17:52;7.93;;;4.73;;
17604;SDS011;8921;50.964;6.800;2023-07-30T00:20:20;10.80;;;5.80;;
17604;SDS011;8921;50.964;6.800;2023-07-30T00:22:48;14.83;;;4.13;;
17604;SDS011;8921;50.964;6.800;2023-07-30T00:25:17;10.40;;;4.60;;
17604;SDS011;8921;50.964;6.800;2023-07-30T00:27:45;11.40;;;5.63;;
17604;SDS011;8921;50.964;6.800;2023-07-30T00:30:13;9.37;;;5.37;;
17604;SDS011;8921;50.964;6.800;2023-07-30T00:32:42;9.77;;;4.40;;
17604;SDS011;8921;50.964;6.800;2023-07-30T00:35:10;21.53;;;5.30;;
17604;SDS011;8921;50.964;6.800;2023-07-30T00:37:38;8.27;;;4.53;;
17604;SDS011;8921;50.964;6.800;2023-07-30T00:40:07;8.97;;;4.33;;
17604;SDS011;8921;50.964;6.800;2023-07-30T00:42:35;10.13;;;4.17;;
17604;SDS011;8921;50.964;6.800;2023-07-30T00:45:03;7.47;;;4.00;;
17604;SDS011;8921;50.964;6.800;2023-07-30T00:47:32;5.60;;;3.30;;
17604;SDS011;8921;50.964;6.800;2023-07-30T00:50:00;5.87;;;3.80;;
17604;SDS011;8921;50.964;6.800;2023-07-30T00:52:28;8.60;;;4.93;;
17604;SDS011;8921;50.964;6.800;2023-07-30T00:54:57;7.33;;;4.10;;
17604;SDS011;8921;50.964;6.800;2023-07-30T00:57:25;8.00;;;4.90;;
17604;SDS011;8921;50.964;6.800;2023-07-30T00:59:53;12.27;;;4.60;;
17604;SDS011;8921;50.964;6.800;2023-07-30T01:02:21;8.47;;;4.67;;
17604;SDS011;8921;50.964;6.800;2023-07-30T01:04:50;5.90;;;3.80;;
17604;SDS011;8921;50.964;6.800;2023-07-30T01:07:18;6.73;;;4.80;;
17604;SDS011;8921;50.964;6.800;2023-07-30T01:09:46;10.40;;;4.90;;
17604;SDS011;8921;50.964;6.800;2023-07-30T01:12:15;11.47;;;5.37;;
17604;SDS011;8921;50.964;6.800;2023-07-30T01:14:44;8.20;;;4.37;;
17604;SDS011;8921;50.964;6.800;2023-07-30T01:17:11;8.53;;;4.07;;
17604;SDS011;8921;50.964;6.800;2023-07-30T01:19:39;9.47;;;4.70;;
17604;SDS011;8921;50.964;6.800;2023-07-30T01:22:08;9.97;;;4.40;;
17604;SDS011;8921;50.964;6.800;2023-07-30T01:24:36;6.80;;;4.00;;
17604;SDS011;8921;50.964;6.800;2023-07-30T01:27:05;7.30;;;4.80;;
17604;SDS011;8921;50.964;6.800;2023-07-30T01:29:42;6.37;;;4.00;;
17604;SDS011;8921;50.964;6.800;2023-07-30T01:32:11;10.57;;;4.90;;
17604;SDS011;8921;50.964;6.800;2023-07-30T01:34:39;6.40;;;3.97;;
17604;SDS011;8921;50.964;6.800;2023-07-30T01:37:07;7.70;;;4.50;;
17604;SDS011;8921;50.964;6.800;2023-07-30T01:39:35;6.40;;;4.13;;
17604;SDS011;8921;50.964;6.800;2023-07-30T01:42:03;7.17;;;3.73;;
17604;SDS011;8921;50.964;6.800;2023-07-30T01:44:31;6.70;;;4.00;;
17604;SDS011;8921;50.964;6.800;2023-07-30T01:46:59;7.90;;;4.03;;
17604;SDS011;8921;50.964;6.800;2023-07-30T01:49:28;7.27;;;3.80;;
17604;SDS011;8921;50.964;6.800;2023-07-30T01:51:56;10.00;;;3.60;;
17604;SDS011;8921;50.964;6.800;2023-07-30T01:54:25;8.87;;;4.50;;
17604;SDS011;8921;50.964;6.800;2023-07-30T01:56:53;9.17;;;4.03;;
17604;SDS011;8921;50.964;6.800;2023-07-30T01:59:21;8.53;;;3.97;;
17604;SDS011;8921;50.964;6.800;2023-07-30T02:01:49;6.50;;;3.13;;
17604;SDS011;8921;50.964;6.800;2023-07-30T02:04:18;7.00;;;4.13;;
17604;SDS011;8921;50.964;6.800;2023-07-30T02:06:46;8.57;;;4.37;;
17604;SDS011;8921;50.964;6.800;2023-07-30T02:09:14;11.10;;;3.80;;
17604;SDS011;8921;50.964;6.800;2023-07-30T02:11:43;11.17;;;4.77;;
17604;SDS011;8921;50.964;6.800;2023-07-30T02:14:11;6.30;;;4.00;;
17604;SDS011;8921;50.964;6.800;2023-07-30T02:16:39;19.43;;;4.10;;
17604;SDS011;8921;50.964;6.800;2023-07-30T02:19:07;10.90;;;3.73;;
17604;SDS011;8921;50.964;6.800;2023-07-30T02:21:36;5.60;;;3.17;;
17604;SDS011;8921;50.964;6.800;2023-07-30T02:24:04;9.47;;;3.30;;
17604;SDS011;8921;50.964;6.800;2023-07-30T02:26:32;7.57;;;3.37;;
17604;SDS011;8921;50.964;6.800;2023-07-30T02:29:00;8.27;;;4.07;;
17604;SDS011;8921;50.964;6.800;2023-07-30T02:31:29;11.47;;;4.93;;
17604;SDS011;8921;50.964;6.800;2023-07-30T02:33:57;9.60;;;4.47;;
17604;SDS011;8921;50.964;6.800;2023-07-30T02:36:25;8.00;;;3.70;;
17604;SDS011;8921;50.964;6.800;2023-07-30T02:38:54;11.33;;;3.70;;
17604;SDS011;8921;50.964;6.800;2023-07-30T02:41:22;8.77;;;3.43;;
17604;SDS011;8921;50.964;6.800;2023-07-30T02:43:50;8.47;;;3.50;;
17604;SDS011;8921;50.964;6.800;2023-07-30T02:46:18;9.57;;;3.80;;
17604;SDS011;8921;50.964;6.800;2023-07-30T02:48:47;8.73;;;4.13;;
17604;SDS011;8921;50.964;6.800;2023-07-30T02:51:15;6.37;;;3.03;;
17604;SDS011;8921;50.964;6.800;2023-07-30T02:53:43;10.87;;;4.20;;
17604;SDS011;8921;50.964;6.800;2023-07-30T02:56:12;8.27;;;3.30;;
17604;SDS011;8921;50.964;6.800;2023-07-30T02:58:40;6.83;;;3.83;;
17604;SDS011;8921;50.964;6.800;2023-07-30T03:01:08;10.23;;;4.10;;
17604;SDS011;8921;50.964;6.800;2023-07-30T03:03:36;8.93;;;3.70;;
17604;SDS011;8921;50.964;6.800;2023-07-30T03:06:05;9.37;;;3.60;;
17604;SDS011;8921;50.964;6.800;2023-07-30T03:08:33;9.00;;;3.90;;
17604;SDS011;8921;50.964;6.800;2023-07-30T03:11:01;8.07;;;4.13;;
17604;SDS011;8921;50.964;6.800;2023-07-30T03:13:30;10.83;;;3.37;;
17604;SDS011;8921;50.964;6.800;2023-07-30T03:15:58;7.00;;;3.60;;
17604;SDS011;8921;50.964;6.800;2023-07-30T03:18:26;8.97;;;3.77;;
17604;SDS011;8921;50.964;6.800;2023-07-30T03:21:01;9.77;;;4.13;;
17604;SDS011;8921;50.964;6.800;2023-07-30T03:23:29;8.70;;;3.83;;
17604;SDS011;8921;50.964;6.800;2023-07-30T03:25:58;12.07;;;3.60;;
17604;SDS011;8921;50.964;6.800;2023-07-30T03:28:26;7.73;;;4.10;;
17604;SDS011;8921;50.964;6.800;2023-07-30T03:30:54;8.90;;;3.83;;
17604;SDS011;8921;50.964;6.800;2023-07-30T03:33:22;7.80;;;3.77;;
17604;SDS011;8921;50.964;6.800;2023-07-30T03:35:50;5.50;;;2.93;;
17604;SDS011;8921;50.964;6.800;2023-07-30T03:38:19;9.53;;;3.40;;
17604;SDS011;8921;50.964;6.800;2023-07-30T03:40:47;9.50;;;3.47;;
17604;SDS011;8921;50.964;6.800;2023-07-30T03:43:15;10.43;;;4.10;;
17604;SDS011;8921;50.964;6.800;2023-07-30T03:45:44;9.87;;;3.80;;
17604;SDS011;8921;50.964;6.800;2023-07-30T03:48:12;10.67;;;3.93;;
17604;SDS011;8921;50.964;6.800;2023-07-30T03:50:40;10.47;;;3.43;;
17604;SDS011;8921;50.964;6.800;2023-07-30T03:53:08;10.70;;;3.17;;
17604;SDS011;8921;50.964;6.800;2023-07-30T03:55:37;8.93;;;3.47;;
17604;SDS011;8921;50.964;6.800;2023-07-30T03:58:05;8.63;;;3.97;;
17604;SDS011;8921;50.964;6.800;2023-07-30T04:00:33;7.67;;;3.60;;
17604;SDS011;8921;50.964;6.800;2023-07-30T04:03:02;10.50;;;3.53;;
17604;SDS011;8921;50.964;6.800;2023-07-30T04:05:30;10.07;;;3.40;;
17604;SDS011;8921;50.964;6.800;2023-07-30T04:07:58;7.13;;;3.30;;
17604;SDS011;8921;50.964;6.800;2023-07-30T04:10:26;11.93;;;3.50;;
17604;SDS011;8921;50.964;6.800;2023-07-30T04:12:55;6.50;;;3.37;;
17604;SDS011;8921;50.964;6.800;2023-07-30T04:15:23;8.80;;;3.47;;
17604;SDS011;8921;50.964;6.800;2023-07-30T04:17:51;9.53;;;3.40;;
17604;SDS011;8921;50.964;6.800;2023-07-30T04:20:20;7.10;;;3.50;;
17604;SDS011;8921;50.964;6.800;2023-07-30T04:22:48;10.30;;;3.33;;
17604;SDS011;8921;50.964;6.800;2023-07-30T04:25:16;11.37;;;3.67;;
17604;SDS011;8921;50.964;6.800;2023-07-30T04:27:45;9.33;;;3.83;;
17604;SDS011;8921;50.964;6.800;2023-07-30T04:30:13;13.10;;;4.00;;
17604;SDS011;8921;50.964;6.800;2023-07-30T04:32:41;9.47;;;3.40;;
17604;SDS011;8921;50.964;6.800;2023-07-30T04:35:09;6.40;;;3.60;;
17604;SDS011;8921;50.964;6.800;2023-07-30T04:37:38;7.70;;;3.07;;
17604;SDS011;8921;50.964;6.800;2023-07-30T04:40:06;8.77;;;3.50;;
17604;SDS011;8921;50.964;6.800;2023-07-30T04:42:35;8.53;;;3.37;;
17604;SDS011;8921;50.964;6.800;2023-07-30T04:45:03;7.87;;;3.40;;
17604;SDS011;8921;50.964;6.800;2023-07-30T04:47:31;7.80;;;3.23;;
17604;SDS011;8921;50.964;6.800;2023-07-30T04:50:00;10.50;;;3.80;;
17604;SDS011;8921;50.964;6.800;2023-07-30T04:52:28;8.67;;;3.33;;
17604;SDS011;8921;50.964;6.800;2023-07-30T04:54:56;7.97;;;3.53;;
17604;SDS011;8921;50.964;6.800;2023-07-30T04:57:25;10.63;;;4.07;;
17604;SDS011;8921;50.964;6.800;2023-07-30T04:59:53;14.80;;;3.87;;
17604;SDS011;8921;50.964;6.800;2023-07-30T05:02:21;7.93;;;3.13;;
17604;SDS011;8921;50.964;6.800;2023-07-30T05:04:50;12.30;;;3.27;;
17604;SDS011;8921;50.964;6.800;2023-07-30T05:07:18;6.80;;;2.97;;
17604;SDS011;8921;50.964;6.800;2023-07-30T05:09:46;7.13;;;2.80;;
17604;SDS011;8921;50.964;6.800;2023-07-30T05:12:14;6.87;;;2.70;;
17604;SDS011;8921;50.964;6.800;2023-07-30T05:14:43;12.17;;;3.20;;
17604;SDS011;8921;50.964;6.800;2023-07-30T05:17:11;10.90;;;3.27;;
17604;SDS011;8921;50.964;6.800;2023-07-30T05:19:39;12.17;;;3.37;;
17604;SDS011;8921;50.964;6.800;2023-07-30T05:22:07;6.00;;;2.97;;
17604;SDS011;8921;50.964;6.800;2023-07-30T05:24:36;12.63;;;2.90;;
17604;SDS011;8921;50.964;6.800;2023-07-30T05:27:04;9.73;;;3.03;;
17604;SDS011;8921;50.964;6.800;2023-07-30T05:29:33;10.43;;;2.60;;
17604;SDS011;8921;50.964;6.800;2023-07-30T05:32:01;8.23;;;2.60;;
17604;SDS011;8921;50.964;6.800;2023-07-30T05:34:29;9.90;;;2.73;;
17604;SDS011;8921;50.964;6.800;2023-07-30T05:36:57;7.80;;;2.13;;
17604;SDS011;8921;50.964;6.800;2023-07-30T05:39:26;9.17;;;3.07;;
17604;SDS011;8921;50.964;6.800;2023-07-30T05:41:54;9.17;;;3.77;;
17604;SDS011;8921;50.964;6.800;2023-07-30T05:44:22;4.70;;;2.00;;
17604;SDS011;8921;50.964;6.800;2023-07-30T05:46:51;6.30;;;2.07;;
17604;SDS011;8921;50.964;6.800;2023-07-30T05:49:19;7.67;;;2.70;;
17604;SDS011;8921;50.964;6.800;2023-07-30T05:51:47;9.30;;;3.83;;
17604;SDS011;8921;50.964;6.800;2023-07-30T05:54:16;5.83;;;2.60;;
17604;SDS011;8921;50.964;6.800;2023-07-30T05:56:44;5.70;;;2.20;;
17604;SDS011;8921;50.964;6.800;2023-07-30T05:59:12;7.20;;;2.17;;
17604;SDS011;8921;50.964;6.800;2023-07-30T06:01:41;7.33;;;2.50;;
17604;SDS011;8921;50.964;6.800;2023-07-30T06:04:09;6.20;;;2.13;;
17604;SDS011;8921;50.964;6.800;2023-07-30T06:06:37;8.93;;;2.63;;
17604;SDS011;8921;50.964;6.800;2023-07-30T06:09:05;7.93;;;2.53;;
17604;SDS011;8921;50.964;6.800;2023-07-30T06:11:39;7.70;;;2.27;;
17604;SDS011;8921;50.964;6.800;2023-07-30T06:14:07;6.43;;;2.20;;
17604;SDS011;8921;50.964;6.800;2023-07-30T06:16:35;7.10;;;2.10;;
17604;SDS011;8921;50.964;6.800;2023-07-30T06:19:04;11.70;;;3.93;;
17604;SDS011;8921;50.964;6.800;2023-07-30T06:21:32;9.53;;;2.40;;
17604;SDS011;8921;50.964;6.800;2023-07-30T06:24:00;11.40;;;2.30;;
17604;SDS011;8921;50.964;6.800;2023-07-30T06:26:28;10.43;;;3.80;;
17604;SDS011;8921;50.964;6.800;2023-07-30T06:28:57;10.87;;;2.80;;
17604;SDS011;8921;50.964;6.800;2023-07-30T06:31:25;12.60;;;3.13;;
17604;SDS011;8921;50.964;6.800;2023-07-30T06:33:54;5.57;;;2.07;;
17604;SDS011;8921;50.964;6.800;2023-07-30T06:36:22;7.53;;;2.60;;
17604;SDS011;8921;50.964;6.800;2023-07-30T06:38:50;14.13;;;2.67;;
17604;SDS011;8921;50.964;6.800;2023-07-30T06:41:19;12.00;;;2.40;;
17604;SDS011;8921;50.964;6.800;2023-07-30T06:43:47;8.00;;;2.20;;
17604;SDS011;8921;50.964;6.800;2023-07-30T06:46:15;12.50;;;2.33;;
17604;SDS011;8921;50.964;6.800;2023-07-30T06:48:43;9.53;;;2.40;;
17604;SDS011;8921;50.964;6.800;2023-07-30T06:51:12;7.57;;;2.27;;
17604;SDS011;8921;50.964;6.800;2023-07-30T06:53:40;7.30;;;2.20;;
17604;SDS011;8921;50.964;6.800;2023-07-30T06:56:08;13.80;;;2.60;;
17604;SDS011;8921;50.964;6.800;2023-07-30T06:58:36;10.37;;;2.33;;
17604;SDS011;8921;50.964;6.800;2023-07-30T07:01:05;6.20;;;2.30;;
17604;SDS011;8921;50.964;6.800;2023-07-30T07:03:33;11.90;;;2.03;;
17604;SDS011;8921;50.964;6.800;2023-07-30T07:06:01;7.03;;;2.30;;
17604;SDS011;8921;50.964;6.800;2023-07-30T07:08:30;10.90;;;2.03;;
17604;SDS011;8921;50.964;6.800;2023-07-30T07:10:58;5.90;;;1.83;;
17604;SDS011;8921;50.964;6.800;2023-07-30T07:13:26;10.20;;;2.67;;
17604;SDS011;8921;50.964;6.800;2023-07-30T07:15:55;13.20;;;2.47;;
17604;SDS011;8921;50.964;6.800;2023-07-30T07:18:23;9.03;;;2.00;;
17604;SDS011;8921;50.964;6.800;2023-07-30T07:20:51;7.67;;;2.30;;
17604;SDS011;8921;50.964;6.800;2023-07-30T07:23:19;7.13;;;2.20;;
17604;SDS011;8921;50.964;6.800;2023-07-30T07:25:48;6.97;;;2.40;;
17604;SDS011;8921;50.964;6.800;2023-07-30T07:28:16;13.23;;;2.30;;
17604;SDS011;8921;50.964;6.800;2023-07-30T07:30:44;8.50;;;2.67;;
17604;SDS011;8921;50.964;6.800;2023-07-30T07:33:12;7.30;;;2.40;;
17604;SDS011;8921;50.964;6.800;2023-07-30T07:35:41;13.30;;;2.43;;
17604;SDS011;8921;50.964;6.800;2023-07-30T07:38:09;11.43;;;2.60;;
17604;SDS011;8921;50.964;6.800;2023-07-30T07:40:38;12.43;;;2.87;;
17604;SDS011;8921;50.964;6.800;2023-07-30T07:43:06;9.13;;;2.83;;
17604;SDS011;8921;50.964;6.800;2023-07-30T07:45:34;12.53;;;2.90;;
17604;SDS011;8921;50.964;6.800;2023-07-30T07:48:02;7.57;;;2.50;;
17604;SDS011;8921;50.964;6.800;2023-07-30T07:50:30;8.43;;;3.03;;
17604;SDS011;8921;50.964;6.800;2023-07-30T07:52:59;8.77;;;2.57;;
17604;SDS011;8921;50.964;6.800;2023-07-30T07:55:27;9.90;;;3.00;;
17604;SDS011;8921;50.964;6.800;2023-07-30T07:57:55;11.80;;;3.03;;
17604;SDS011;8921;50.964;6.800;2023-07-30T08:00:23;12.37;;;3.27;;
17604;SDS011;8921;50.964;6.800;2023-07-30T08:02:52;9.97;;;2.67;;
17604;SDS011;8921;50.964;6.800;2023-07-30T08:05:20;8.60;;;2.87;;
17604;SDS011;8921;50.964;6.800;2023-07-30T08:07:48;11.23;;;2.70;;
17604;SDS011;8921;50.964;6.800;2023-07-30T08:10:17;9.40;;;2.70;;
17604;SDS011;8921;50.964;6.800;2023-07-30T08:12:45;9.90;;;2.77;;
17604;SDS011;8921;50.964;6.800;2023-07-30T08:15:13;9.20;;;3.00;;
17604;SDS011;8921;50.964;6.800;2023-07-30T08:17:41;11.73;;;3.13;;
17604;SDS011;8921;50.964;6.800;2023-07-30T08:20:10;8.80;;;2.40;;
17604;SDS011;8921;50.964;6.800;2023-07-30T08:22:38;14.80;;;3.37;;
17604;SDS011;8921;50.964;6.800;2023-07-30T08:25:07;10.93;;;2.90;;
17604;SDS011;8921;50.964;6.800;2023-07-30T08:27:35;9.23;;;2.70;;
17604;SDS011;8921;50.964;6.800;2023-07-30T08:30:03;9.60;;;3.57;;
17604;SDS011;8921;50.964;6.800;2023-07-30T08:32:32;10.20;;;2.87;;
17604;SDS011;8921;50.964;6.800;2023-07-30T08:35:01;15.13;;;3.33;;
17604;SDS011;8921;50.964;6.800;2023-07-30T08:37:29;10.93;;;3.20;;
17604;SDS011;8921;50.964;6.800;2023-07-30T08:39:57;14.30;;;3.47;;
17604;SDS011;8921;50.964;6.800;2023-07-30T08:42:25;12.90;;;3.17;;
17604;SDS011;8921;50.964;6.800;2023-07-30T08:44:54;17.10;;;4.30;;
17604;SDS011;8921;50.964;6.800;2023-07-30T08:47:22;8.70;;;2.90;;
17604;SDS011;8921;50.964;6.800;2023-07-30T08:49:50;8.60;;;3.00;;
17604;SDS011;8921;50.964;6.800;2023-07-30T08:52:18;7.57;;;2.50;;
17604;SDS011;8921;50.964;6.800;2023-07-30T08:54:47;9.70;;;2.80;;
17604;SDS011;8921;50.964;6.800;2023-07-30T08:57:16;13.30;;;3.50;;
17604;SDS011;8921;50.964;6.800;2023-07-30T08:59:47;9.93;;;2.63;;
17604;SDS011;8921;50.964;6.800;2023-07-30T09:02:18;11.33;;;3.63;;
17604;SDS011;8921;50.964;6.800;2023-07-30T09:04:46;13.27;;;2.90;;
17604;SDS011;8921;50.964;6.800;2023-07-30T09:07:14;9.63;;;2.57;;
17604;SDS011;8921;50.964;6.800;2023-07-30T09:09:42;12.90;;;2.77;;
17604;SDS011;8921;50.964;6.800;2023-07-30T09:12:14;9.37;;;2.30;;
17604;SDS011;8921;50.964;6.800;2023-07-30T09:14:42;10.80;;;2.97;;
17604;SDS011;8921;50.964;6.800;2023-07-30T09:17:11;9.80;;;2.50;;
17604;SDS011;8921;50.964;6.800;2023-07-30T09:19:38;10.70;;;3.10;;
17604;SDS011;8921;50.964;6.800;2023-07-30T09:22:07;10.47;;;2.57;;
17604;SDS011;8921;50.964;6.800;2023-07-30T09:24:35;11.73;;;3.00;;
17604;SDS011;8921;50.964;6.800;2023-07-30T09:27:03;8.03;;;3.10;;
17604;SDS011;8921;50.964;6.800;2023-07-30T09:29:32;17.13;;;3.70;;
17604;SDS011;8921;50.964;6.800;2023-07-30T09:32:00;6.93;;;2.43;;
17604;SDS011;8921;50.964;6.800;2023-07-30T09:34:28;14.50;;;4.10;;
17604;SDS011;8921;50.964;6.800;2023-07-30T09:39:27;10.00;;;2.80;;
17604;SDS011;8921;50.964;6.800;2023-07-30T09:42:01;14.40;;;3.03;;
17604;SDS011;8921;50.964;6.800;2023-07-30T09:44:29;6.57;;;3.47;;
17604;SDS011;8921;50.964;6.800;2023-07-30T09:46:57;17.70;;;3.23;;
17604;SDS011;8921;50.964;6.800;2023-07-30T09:49:26;7.03;;;2.37;;
17604;SDS011;8921;50.964;6.800;2023-07-30T09:51:54;12.87;;;3.00;;
17604;SDS011;8921;50.964;6.800;2023-07-30T09:54:22;11.20;;;2.10;;
17604;SDS011;8921;50.964;6.800;2023-07-30T09:56:51;10.97;;;2.80;;
17604;SDS011;8921;50.964;6.800;2023-07-30T09:59:19;9.73;;;2.10;;
17604;SDS011;8921;50.964;6.800;2023-07-30T10:01:48;9.20;;;2.77;;
17604;SDS011;8921;50.964;6.800;2023-07-30T10:04:18;8.47;;;2.50;;
17604;SDS011;8921;50.964;6.800;2023-07-30T10:06:54;9.77;;;2.30;;
17604;SDS011;8921;50.964;6.800;2023-07-30T10:09:28;6.87;;;2.60;;
17604;SDS011;8921;50.964;6.800;2023-07-30T10:11:55;11.67;;;2.20;;
17604;SDS011;8921;50.964;6.800;2023-07-30T10:14:23;7.83;;;2.10;;
17604;SDS011;8921;50.964;6.800;2023-07-30T10:16:52;8.90;;;2.50;;
17604;SDS011;8921;50.964;6.800;2023-07-30T10:19:26;15.20;;;2.50;;
17604;SDS011;8921;50.964;6.800;2023-07-30T10:21:53;5.40;;;1.70;;
17604;SDS011;8921;50.964;6.800;2023-07-30T10:24:19;8.07;;;1.70;;
17604;SDS011;8921;50.964;6.800;2023-07-30T10:26:48;9.83;;;2.40;;
17604;SDS011;8921;50.964;6.800;2023-07-30T10:29:20;10.00;;;2.70;;
17604;SDS011;8921;50.964;6.800;2023-07-30T10:31:48;7.70;;;2.40;;
17604;SDS011;8921;50.964;6.800;2023-07-30T10:34:15;7.90;;;3.20;;
17604;SDS011;8921;50.964;6.800;2023-07-30T10:36:44;9.40;;;2.23;;
17604;SDS011;8921;50.964;6.800;2023-07-30T10:39:16;11.10;;;2.63;;
17604;SDS011;8921;50.964;6.800;2023-07-30T10:41:44;10.70;;;2.20;;
17604;SDS011;8921;50.964;6.800;2023-07-30T10:44:24;10.37;;;2.30;;
17604;SDS011;8921;50.964;6.800;2023-07-30T10:46:53;7.43;;;2.00;;
17604;SDS011;8921;50.964;6.800;2023-07-30T10:49:23;17.20;;;2.63;;
17604;SDS011;8921;50.964;6.800;2023-07-30T10:51:51;8.10;;;2.10;;
17604;SDS011;8921;50.964;6.800;2023-07-30T10:54:19;7.33;;;2.10;;
17604;SDS011;8921;50.964;6.800;2023-07-30T10:56:47;6.73;;;2.47;;
17604;SDS011;8921;50.964;6.800;2023-07-30T10:59:16;8.20;;;1.67;;
17604;SDS011;8921;50.964;6.800;2023-07-30T11:01:44;5.53;;;2.00;;
17604;SDS011;8921;50.964;6.800;2023-07-30T11:04:16;4.60;;;1.63;;
17604;SDS011;8921;50.964;6.800;2023-07-30T11:06:47;5.87;;;1.50;;
17604;SDS011;8921;50.964;6.800;2023-07-30T11:09:18;6.03;;;1.60;;
17604;SDS011;8921;50.964;6.800;2023-07-30T11:11:49;8.00;;;1.53;;
17604;SDS011;8921;50.964;6.800;2023-07-30T11:14:17;9.47;;;1.87;;
17604;SDS011;8921;50.964;6.800;2023-07-30T11:16:48;4.57;;;1.50;;
17604;SDS011;8921;50.964;6.800;2023-07-30T11:19:16;6.40;;;1.70;;
17604;SDS011;8921;50.964;6.800;2023-07-30T11:21:45;6.20;;;1.30;;
17604;SDS011;8921;50.964;6.800;2023-07-30T11:24:13;7.10;;;1.70;;
17604;SDS011;8921;50.964;6.800;2023-07-30T11:26:41;6.37;;;2.07;;
17604;SDS011;8921;50.964;6.800;2023-07-30T11:29:18;8.90;;;1.70;;
17604;SDS011;8921;50.964;6.800;2023-07-30T11:31:47;7.00;;;1.67;;
17604;SDS011;8921;50.964;6.800;2023-07-30T11:34:15;8.13;;;1.87;;
17604;SDS011;8921;50.964;6.800;2023-07-30T11:36:43;10.23;;;1.77;;
17604;SDS011;8921;50.964;6.800;2023-07-30T11:39:11;4.80;;;1.40;;
17604;SDS011;8921;50.964;6.800;2023-07-30T11:41:40;7.40;;;2.27;;
17604;SDS011;8921;50.964;6.800;2023-07-30T11:44:08;6.33;;;1.77;;
17604;SDS011;8921;50.964;6.800;2023-07-30T11:46:36;7.33;;;1.53;;
17604;SDS011;8921;50.964;6.800;2023-07-30T11:49:11;11.30;;;1.70;;
17604;SDS011;8921;50.964;6.800;2023-07-30T11:51:39;10.10;;;1.80;;
17604;SDS011;8921;50.964;6.800;2023-07-30T11:54:07;6.03;;;1.83;;
17604;SDS011;8921;50.964;6.800;2023-07-30T11:56:35;11.30;;;1.93;;
17604;SDS011;8921;50.964;6.800;2023-07-30T11:59:07;6.73;;;1.90;;
17604;SDS011;8921;50.964;6.800;2023-07-30T12:01:35;6.13;;;1.90;;
17604;SDS011;8921;50.964;6.800;2023-07-30T12:04:04;7.63;;;1.60;;
17604;SDS011;8921;50.964;6.800;2023-07-30T12:06:50;9.03;;;2.10;;
17604;SDS011;8921;50.964;6.800;2023-07-30T12:14:21;7.43;;;1.90;;
17604;SDS011;8921;50.964;6.800;2023-07-30T12:16:48;8.90;;;2.07;;
17604;SDS011;8921;50.964;6.800;2023-07-30T12:19:16;6.53;;;2.07;;
17604;SDS011;8921;50.964;6.800;2023-07-30T12:21:44;10.10;;;2.60;;
17604;SDS011;8921;50.964;6.800;2023-07-30T12:24:13;8.70;;;2.57;;
17604;SDS011;8921;50.964;6.800;2023-07-30T12:26:41;5.43;;;1.63;;
17604;SDS011;8921;50.964;6.800;2023-07-30T12:29:09;9.10;;;2.10;;
17604;SDS011;8921;50.964;6.800;2023-07-30T12:31:37;8.93;;;2.07;;
17604;SDS011;8921;50.964;6.800;2023-07-30T12:34:06;10.10;;;2.10;;
17604;SDS011;8921;50.964;6.800;2023-07-30T12:36:34;8.90;;;2.17;;
17604;SDS011;8921;50.964;6.800;2023-07-30T12:39:02;6.67;;;2.00;;
17604;SDS011;8921;50.964;6.800;2023-07-30T12:41:31;6.23;;;1.90;;
17604;SDS011;8921;50.964;6.800;2023-07-30T12:43:59;5.63;;;1.97;;
17604;SDS011;8921;50.964;6.800;2023-07-30T12:46:27;5.80;;;1.70;;
17604;SDS011;8921;50.964;6.800;2023-07-30T12:48:56;6.30;;;1.57;;
17604;SDS011;8921;50.964;6.800;2023-07-30T12:51:24;8.90;;;2.13;;
17604;SDS011;8921;50.964;6.800;2023-07-30T12:53:52;6.20;;;1.80;;
17604;SDS011;8921;50.964;6.800;2023-07-30T12:56:20;9.03;;;2.17;;
17604;SDS011;8921;50.964;6.800;2023-07-30T12:58:49;8.70;;;2.43;;
17604;SDS011;8921;50.964;6.800;2023-07-30T13:01:17;8.83;;;2.70;;
17604;SDS011;8921;50.964;6.800;2023-07-30T13:03:45;10.13;;;2.10;;
17604;SDS011;8921;50.964;6.800;2023-07-30T13:06:14;8.43;;;1.80;;
17604;SDS011;8921;50.964;6.800;2023-07-30T13:08:42;7.80;;;2.00;;
17604;SDS011;8921;50.964;6.800;2023-07-30T13:11:10;13.43;;;2.67;;
17604;SDS011;8921;50.964;6.800;2023-07-30T13:13:39;12.20;;;2.20;;
17604;SDS011;8921;50.964;6.800;2023-07-30T13:16:07;6.23;;;2.40;;
17604;SDS011;8921;50.964;6.800;2023-07-30T13:18:35;7.83;;;1.93;;
17604;SDS011;8921;50.964;6.800;2023-07-30T13:21:04;15.27;;;2.37;;
17604;SDS011;8921;50.964;6.800;2023-07-30T13:23:32;5.30;;;1.70;;
17604;SDS011;8921;50.964;6.800;2023-07-30T13:26:00;7.00;;;2.10;;
17604;SDS011;8921;50.964;6.800;2023-07-30T13:28:28;6.20;;;1.97;;
17604;SDS011;8921;50.964;6.800;2023-07-30T13:30:57;7.73;;;1.93;;
17604;SDS011;8921;50.964;6.800;2023-07-30T13:33:25;7.23;;;2.27;;
17604;SDS011;8921;50.964;6.800;2023-07-30T13:35:53;5.73;;;2.10;;
17604;SDS011;8921;50.964;6.800;2023-07-30T13:38:22;12.57;;;2.17;;
17604;SDS011;8921;50.964;6.800;2023-07-30T13:40:50;8.47;;;1.93;;
17604;SDS011;8921;50.964;6.800;2023-07-30T13:43:18;8.43;;;2.37;;
17604;SDS011;8921;50.964;6.800;2023-07-30T13:45:47;7.33;;;2.43;;
17604;SDS011;8921;50.964;6.800;2023-07-30T13:48:15;9.70;;;2.23;;
17604;SDS011;8921;50.964;6.800;2023-07-30T13:50:43;8.07;;;2.50;;
17604;SDS011;8921;50.964;6.800;2023-07-30T13:53:11;6.27;;;2.30;;
17604;SDS011;8921;50.964;6.800;2023-07-30T13:55:40;7.30;;;1.90;;
17604;SDS011;8921;50.964;6.800;2023-07-30T13:58:08;7.60;;;2.07;;
17604;SDS011;8921;50.964;6.800;2023-07-30T14:00:36;11.60;;;3.23;;
17604;SDS011;8921;50.964;6.800;2023-07-30T14:03:05;7.87;;;2.10;;
17604;SDS011;8921;50.964;6.800;2023-07-30T14:05:33;13.10;;;2.33;;
17604;SDS011;8921;50.964;6.800;2023-07-30T14:08:01;8.10;;;2.37;;
17604;SDS011;8921;50.964;6.800;2023-07-30T14:10:29;10.80;;;2.23;;
17604;SDS011;8921;50.964;6.800;2023-07-30T14:12:58;5.50;;;1.90;;
17604;SDS011;8921;50.964;6.800;2023-07-30T14:15:26;6.47;;;2.03;;
17604;SDS011;8921;50.964;6.800;2023-07-30T14:17:54;8.20;;;1.70;;
17604;SDS011;8921;50.964;6.800;2023-07-30T14:20:23;8.57;;;2.07;;
17604;SDS011;8921;50.964;6.800;2023-07-30T14:22:51;4.93;;;1.50;;
17604;SDS011;8921;50.964;6.800;2023-07-30T14:25:19;7.57;;;1.93;;
17604;SDS011;8921;50.964;6.800;2023-07-30T14:27:48;7.33;;;1.73;;
17604;SDS011;8921;50.964;6.800;2023-07-30T14:30:16;7.27;;;1.80;;
17604;SDS011;8921;50.964;6.800;2023-07-30T14:32:44;6.33;;;1.70;;
17604;SDS011;8921;50.964;6.800;2023-07-30T14:35:12;8.40;;;2.03;;
17604;SDS011;8921;50.964;6.800;2023-07-30T14:37:41;10.97;;;2.97;;
17604;SDS011;8921;50.964;6.800;2023-07-30T14:40:09;8.90;;;1.97;;
17604;SDS011;8921;50.964;6.800;2023-07-30T14:42:38;6.43;;;1.50;;
17604;SDS011;8921;50.964;6.800;2023-07-30T14:45:06;9.90;;;1.50;;
17604;SDS011;8921;50.964;6.800;2023-07-30T14:47:35;7.93;;;1.90;;
17604;SDS011;8921;50.964;6.800;2023-07-30T14:50:03;10.90;;;2.30;;
17604;SDS011;8921;50.964;6.800;2023-07-30T14:52:31;5.00;;;1.80;;
17604;SDS011;8921;50.964;6.800;2023-07-30T14:55:00;7.00;;;1.83;;
17604;SDS011;8921;50.964;6.800;2023-07-30T14:57:28;9.13;;;2.00;;
17604;SDS011;8921;50.964;6.800;2023-07-30T14:59:56;7.40;;;1.63;;
17604;SDS011;8921;50.964;6.800;2023-07-30T15:02:25;9.90;;;1.87;;
17604;SDS011;8921;50.964;6.800;2023-07-30T15:04:53;8.00;;;1.80;;
17604;SDS011;8921;50.964;6.800;2023-07-30T15:07:21;5.80;;;1.57;;
17604;SDS011;8921;50.964;6.800;2023-07-30T15:09:49;8.20;;;1.60;;
17604;SDS011;8921;50.964;6.800;2023-07-30T15:12:18;7.37;;;2.53;;